Time;durP1;ratioP1;P1;durP2;ratioP2;P2;SDS_P1;SDS_P2;PMS_P1;PMS_P2;Temp;Humidity;BMP_temperature;BMP_pressure;BME280_temperature;BME280_humidity;BME280_pressure;Samples;Min_cycle;Max_cycle;Signal;HPM_P1;HPM_P2
2023/03/02 00:01:09;;;;;;;36.65;23.52;;;3.20;99.90;;;;;;5027319;28;20042;-82
2023/03/02 00:03:39;;;;;;;37.70;22.88;;;3.20;99.90;;;;;;5024619;28;20030;-82
2023/03/02 00:06:06;;;;;;;38.25;23.17;;;3.20;99.90;;;;;;5019173;28;20038;-82
2023/03/02 00:08:33;;;;;;;39.90;23.77;;;3.30;99.90;;;;;;5022813;28;20585;-82
2023/03/02 00:11:00;;;;;;;44.53;25.10;;;3.20;99.90;;;;;;5007567;28;20046;-82
2023/03/02 00:13:27;;;;;;;41.83;25.30;;;3.20;99.90;;;;;;5022545;28;20407;-82
2023/03/02 00:15:53;;;;;;;44.15;25.35;;;3.20;99.90;;;;;;5026081;28;20458;-82
2023/03/02 00:18:19;;;;;;;38.30;23.35;;;3.20;99.90;;;;;;5030822;28;20041;-83
2023/03/02 00:20:44;;;;;;;41.70;24.70;;;3.10;99.90;;;;;;5024144;28;20095;-81
2023/03/02 00:23:10;;;;;;;43.25;24.60;;;3.10;99.90;;;;;;5020910;28;20076;-82
2023/03/02 00:25:36;;;;;;;43.75;25.27;;;3.10;99.90;;;;;;5023983;28;20038;-82
2023/03/02 00:28:01;;;;;;;45.75;25.73;;;3.10;99.90;;;;;;5001708;28;20065;-82
2023/03/02 00:30:27;;;;;;;39.85;24.25;;;3.10;99.90;;;;;;5028514;28;20037;-83
2023/03/02 00:32:52;;;;;;;42.50;25.23;;;3.20;99.90;;;;;;5017401;28;20060;-83
2023/03/02 00:35:18;;;;;;;44.20;25.33;;;3.10;99.90;;;;;;5012115;28;20029;-83
2023/03/02 00:37:44;;;;;;;49.47;27.13;;;3.10;99.90;;;;;;5029663;28;20124;-83
2023/03/02 00:40:10;;;;;;;47.83;27.52;;;3.10;99.90;;;;;;5011400;28;20116;-82
2023/03/02 00:42:36;;;;;;;46.75;27.30;;;3.10;99.90;;;;;;5021687;28;20050;-82
2023/03/02 00:45:04;;;;;;;45.33;27.05;;;3.20;99.90;;;;;;5029685;28;20044;-81
2023/03/02 00:47:31;;;;;;;45.65;26.80;;;3.20;99.90;;;;;;5022712;28;20064;-82
2023/03/02 00:49:57;;;;;;;45.20;27.00;;;3.20;99.90;;;;;;5024487;28;20442;-82
2023/03/02 00:52:23;;;;;;;48.80;26.90;;;3.20;99.90;;;;;;5002284;28;20042;-82
2023/03/02 00:54:48;;;;;;;48.47;28.23;;;3.20;99.90;;;;;;5012264;28;20038;-82
2023/03/02 00:57:14;;;;;;;45.15;26.60;;;3.20;99.90;;;;;;5029599;28;20112;-82
2023/03/02 00:59:39;;;;;;;45.55;27.13;;;3.30;99.90;;;;;;5021829;28;20484;-82
2023/03/02 01:02:05;;;;;;;54.38;29.92;;;3.20;99.90;;;;;;5021283;28;20045;-81
2023/03/02 01:04:37;;;;;;;53.40;29.52;;;3.20;99.90;;;;;;5018003;28;20069;-82
2023/03/02 01:07:06;;;;;;;53.38;28.55;;;3.20;99.90;;;;;;5028700;28;20029;-81
2023/03/02 01:09:32;;;;;;;50.85;28.15;;;3.10;99.90;;;;;;5011325;28;20038;-81
2023/03/02 01:11:58;;;;;;;50.33;28.10;;;3.10;99.90;;;;;;5012984;28;20517;-82
2023/03/02 01:14:24;;;;;;;48.60;28.55;;;3.10;99.90;;;;;;5021368;28;20503;-82
2023/03/02 01:16:50;;;;;;;55.88;29.30;;;3.10;99.90;;;;;;5019102;28;20060;-82
2023/03/02 01:19:16;;;;;;;51.95;28.42;;;3.10;99.90;;;;;;5004588;28;20507;-81
2023/03/02 01:21:42;;;;;;;49.90;28.05;;;3.10;99.90;;;;;;5025607;28;20049;-81
2023/03/02 01:24:09;;;;;;;52.53;29.17;;;3.10;99.90;;;;;;5029135;28;20088;-82
2023/03/02 01:26:36;;;;;;;52.17;28.85;;;3.00;99.90;;;;;;5021067;28;20041;-82
2023/03/02 01:29:02;;;;;;;52.90;28.20;;;3.00;99.90;;;;;;5021392;28;20044;-82
2023/03/02 01:31:28;;;;;;;49.40;28.30;;;3.00;99.90;;;;;;5011102;28;20052;-82
2023/03/02 01:33:54;;;;;;;50.97;28.23;;;3.00;99.90;;;;;;4999412;28;20033;-82
2023/03/02 01:36:20;;;;;;;49.40;27.30;;;3.00;99.90;;;;;;5009966;28;20033;-82
2023/03/02 01:38:46;;;;;;;49.40;26.08;;;2.90;99.90;;;;;;5001554;28;20042;-82
2023/03/02 01:41:12;;;;;;;47.28;28.05;;;2.90;99.90;;;;;;5017891;28;20139;-82
2023/03/02 01:43:38;;;;;;;46.35;26.33;;;2.80;99.90;;;;;;5026402;28;20069;-82
2023/03/02 01:46:25;;;;;;;48.15;27.13;;;2.80;99.90;;;;;;5003868;28;20056;-82
2023/03/02 01:49:06;;;;;;;44.65;25.80;;;2.80;99.90;;;;;;5013426;28;20104;-82
2023/03/02 01:51:36;;;;;;;51.65;27.20;;;2.70;99.90;;;;;;5018803;28;20044;-82
2023/03/02 01:54:08;;;;;;;48.67;25.77;;;2.70;99.90;;;;;;5002637;28;20163;-82
2023/03/02 01:56:38;;;;;;;50.72;27.48;;;2.60;99.90;;;;;;5019011;28;20041;-82
2023/03/02 01:59:13;;;;;;;44.72;25.25;;;2.60;99.90;;;;;;5028014;28;20037;-82
2023/03/02 02:01:41;;;;;;;44.28;25.77;;;2.70;99.90;;;;;;5017807;28;20049;-82
2023/03/02 02:04:08;;;;;;;47.78;25.67;;;2.60;99.90;;;;;;5009959;28;20108;-82
2023/03/02 02:06:37;;;;;;;50.15;27.95;;;2.70;99.90;;;;;;5022806;28;20113;-82
2023/03/02 02:09:07;;;;;;;51.72;28.52;;;2.70;99.90;;;;;;5018981;28;20044;-82
2023/03/02 02:11:33;;;;;;;50.90;27.70;;;2.70;99.90;;;;;;5014145;28;20137;-82
2023/03/02 02:14:00;;;;;;;44.08;25.48;;;2.60;99.90;;;;;;5021315;28;20503;-82
2023/03/02 02:16:28;;;;;;;48.15;26.33;;;2.70;99.90;;;;;;5009485;28;20117;-82
2023/03/02 02:18:54;;;;;;;45.25;26.08;;;2.60;99.90;;;;;;5015454;28;20041;-82
2023/03/02 02:21:21;;;;;;;47.58;27.02;;;2.60;99.90;;;;;;5028044;28;20038;-82
2023/03/02 02:23:59;;;;;;;43.70;25.42;;;2.70;99.90;;;;;;5024047;28;20103;-83
2023/03/02 02:26:34;;;;;;;45.40;26.08;;;2.70;99.90;;;;;;5026906;28;20574;-82
2023/03/02 02:29:11;;;;;;;44.20;25.83;;;2.60;99.90;;;;;;5016600;28;20040;-82
2023/03/02 02:31:48;;;;;;;46.08;25.30;;;2.60;99.90;;;;;;5001816;28;20034;-82
2023/03/02 02:34:22;;;;;;;43.13;24.30;;;2.60;99.90;;;;;;5020316;28;20041;-82
2023/03/02 02:36:52;;;;;;;43.65;25.45;;;2.60;99.90;;;;;;5012419;28;20045;-82
2023/03/02 02:39:23;;;;;;;38.05;23.27;;;2.60;99.90;;;;;;5031464;28;20041;-82
2023/03/02 02:41:54;;;;;;;42.65;23.58;;;2.50;99.90;;;;;;5024612;28;20048;-82
2023/03/02 02:44:19;;;;;;;39.75;22.83;;;2.50;99.90;;;;;;5028571;28;20415;-81
2023/03/02 02:46:45;;;;;;;43.03;23.42;;;2.40;99.90;;;;;;5001527;28;20038;-82
2023/03/02 02:49:24;;;;;;;42.47;23.77;;;2.30;99.90;;;;;;5022524;28;20064;-82
2023/03/02 02:51:50;;;;;;;38.92;21.15;;;2.30;99.90;;;;;;5025501;28;20048;-81
2023/03/02 02:54:18;;;;;;;44.50;23.85;;;2.30;99.90;;;;;;5030550;28;20041;-83
2023/03/02 02:56:45;;;;;;;38.63;23.55;;;2.20;99.90;;;;;;5015636;28;20087;-82
2023/03/02 02:59:19;;;;;;;42.50;23.40;;;2.20;99.90;;;;;;5019231;28;20091;-82
2023/03/02 03:01:47;;;;;;;40.15;23.17;;;2.20;99.90;;;;;;5004152;28;20045;-83
2023/03/02 03:04:17;;;;;;;40.00;22.33;;;2.20;99.90;;;;;;5031581;28;20125;-82
2023/03/02 03:06:54;;;;;;;44.03;24.65;;;2.20;99.90;;;;;;5032870;28;20043;-83
2023/03/02 03:09:20;;;;;;;47.13;25.73;;;2.20;99.90;;;;;;5029717;28;20030;-83
2023/03/02 03:12:06;;;;;;;40.25;24.05;;;2.20;99.90;;;;;;5005619;28;20117;-82
2023/03/02 03:14:38;;;;;;;45.15;23.83;;;2.20;99.90;;;;;;5019811;28;20054;-82
2023/03/02 03:17:10;;;;;;;41.13;22.80;;;2.20;99.90;;;;;;5029019;28;20124;-82
2023/03/02 03:19:38;;;;;;;47.70;24.05;;;2.30;99.90;;;;;;5027272;28;20045;-83
2023/03/02 03:22:04;;;;;;;45.97;23.80;;;2.20;99.90;;;;;;5030345;28;20044;-82
2023/03/02 03:24:31;;;;;;;43.92;24.02;;;2.20;99.90;;;;;;5022287;28;20073;-83
2023/03/02 03:26:58;;;;;;;39.60;22.60;;;2.20;99.90;;;;;;5002694;28;20034;-82
2023/03/02 03:29:26;;;;;;;40.15;21.88;;;2.20;99.90;;;;;;5006378;28;20395;-82
2023/03/02 03:31:54;;;;;;;43.35;24.23;;;2.20;99.90;;;;;;5022481;28;20103;-83
2023/03/02 03:34:21;;;;;;;39.72;22.80;;;2.20;99.90;;;;;;5019850;28;20464;-82
2023/03/02 03:36:46;;;;;;;49.45;24.88;;;2.20;99.90;;;;;;5024249;28;20100;-82
2023/03/02 03:39:13;;;;;;;43.60;24.92;;;2.20;99.90;;;;;;5023669;28;20045;-83
2023/03/02 03:41:39;;;;;;;43.72;23.35;;;2.20;99.90;;;;;;5019421;28;20045;-83
2023/03/02 03:44:05;;;;;;;39.15;23.50;;;2.20;99.90;;;;;;5001413;28;20061;-83
2023/03/02 03:46:32;;;;;;;47.90;25.38;;;2.20;99.90;;;;;;5008205;28;20072;-83
2023/03/02 03:48:58;;;;;;;45.53;24.02;;;2.10;99.90;;;;;;5025535;28;20040;-82
2023/03/02 03:51:24;;;;;;;43.20;24.17;;;2.10;99.90;;;;;;5020460;28;20049;-82
2023/03/02 03:53:59;;;;;;;40.67;23.15;;;2.20;99.90;;;;;;5025429;28;20037;-82
2023/03/02 03:56:30;;;;;;;43.40;23.73;;;2.10;99.90;;;;;;5010192;28;20053;-82
2023/03/02 03:59:05;;;;;;;46.28;24.02;;;2.10;99.90;;;;;;5015315;28;20103;-81
2023/03/02 04:01:46;;;;;;;41.35;24.05;;;2.10;99.90;;;;;;5013159;28;20045;-82
2023/03/02 04:04:16;;;;;;;43.55;23.90;;;2.10;99.90;;;;;;5005106;28;20073;-81
2023/03/02 04:06:42;;;;;;;43.30;23.00;;;2.10;99.90;;;;;;5029825;28;20033;-82
2023/03/02 04:09:08;;;;;;;41.38;22.52;;;2.10;99.90;;;;;;5029871;28;20107;-82
2023/03/02 04:11:38;;;;;;;44.63;24.25;;;2.10;99.90;;;;;;5019470;28;20551;-82
2023/03/02 04:14:04;;;;;;;54.60;23.50;;;2.10;99.90;;;;;;5023718;28;20041;-83
2023/03/02 04:16:30;;;;;;;52.40;24.52;;;2.10;99.90;;;;;;5012993;28;20041;-82
2023/03/02 04:18:57;;;;;;;45.28;23.85;;;2.10;99.90;;;;;;5000017;28;20493;-83
2023/03/02 04:21:22;;;;;;;44.40;24.08;;;2.10;99.90;;;;;;4999779;28;20081;-82
2023/03/02 04:23:48;;;;;;;51.40;25.02;;;2.00;99.90;;;;;;5013277;28;20156;-83
2023/03/02 04:26:14;;;;;;;46.60;23.65;;;2.00;99.90;;;;;;5029513;28;20029;-83
2023/03/02 04:28:40;;;;;;;45.53;23.35;;;2.00;99.90;;;;;;5020642;28;20567;-82
2023/03/02 04:31:05;;;;;;;50.78;24.95;;;2.00;99.90;;;;;;5014310;28;20061;-82
2023/03/02 04:33:31;;;;;;;49.03;24.63;;;2.00;99.90;;;;;;5017215;28;20044;-82
2023/03/02 04:35:57;;;;;;;46.30;23.55;;;2.00;99.90;;;;;;5006027;28;20412;-81
2023/03/02 04:38:23;;;;;;;50.85;23.02;;;2.00;99.90;;;;;;5024000;28;20045;-82
2023/03/02 04:40:48;;;;;;;46.90;23.90;;;1.90;99.90;;;;;;5005330;28;20630;-82
2023/03/02 04:43:14;;;;;;;46.08;24.10;;;1.90;99.90;;;;;;5013575;28;20038;-82
2023/03/02 04:45:40;;;;;;;54.13;24.95;;;1.90;99.90;;;;;;4998757;28;20084;-82
2023/03/02 04:48:07;;;;;;;51.88;25.65;;;1.90;99.90;;;;;;5009056;28;20399;-82
2023/03/02 04:50:32;;;;;;;49.78;24.75;;;1.90;99.90;;;;;;5029644;28;20127;-82
2023/03/02 04:52:58;;;;;;;52.55;24.27;;;1.90;99.90;;;;;;5017717;28;20125;-82
2023/03/02 04:55:25;;;;;;;57.17;25.33;;;1.90;99.90;;;;;;5010836;28;20041;-82
2023/03/02 04:57:51;;;;;;;58.33;25.90;;;1.80;99.90;;;;;;5030207;28;20116;-82
2023/03/02 05:00:19;;;;;;;47.45;24.45;;;1.80;99.90;;;;;;5004557;28;20112;-82
2023/03/02 05:02:45;;;;;;;54.70;26.67;;;1.80;99.90;;;;;;5018196;28;20038;-82
2023/03/02 05:05:18;;;;;;;66.47;28.20;;;1.80;99.90;;;;;;5026109;28;20038;-82
2023/03/02 05:07:44;;;;;;;61.47;28.88;;;1.80;99.90;;;;;;5006844;28;20030;-82
2023/03/02 05:10:11;;;;;;;54.53;27.02;;;1.80;99.90;;;;;;5028061;28;20030;-83
2023/03/02 05:12:53;;;;;;;63.55;28.55;;;1.80;99.90;;;;;;5011921;28;20052;-82
2023/03/02 05:15:24;;;;;;;60.83;29.35;;;1.80;99.90;;;;;;5024130;28;20045;-82
2023/03/02 05:17:49;;;;;;;57.70;27.52;;;1.80;99.90;;;;;;5026975;28;20073;-82
2023/03/02 05:20:16;;;;;;;60.85;28.15;;;1.80;99.90;;;;;;5021962;28;20116;-82
2023/03/02 05:22:42;;;;;;;60.38;27.92;;;1.80;99.90;;;;;;5024919;28;20042;-82
2023/03/02 05:25:08;;;;;;;59.88;27.27;;;1.80;99.90;;;;;;5012538;28;20038;-82
2023/03/02 05:27:35;;;;;;;60.53;27.98;;;1.80;99.90;;;;;;5029190;28;20121;-83
2023/03/02 05:30:02;;;;;;;60.53;28.67;;;1.90;99.90;;;;;;5020017;28;20038;-83
2023/03/02 05:32:28;;;;;;;82.88;29.65;;;1.80;99.90;;;;;;5006749;28;20330;-82
2023/03/02 05:34:54;;;;;;;64.63;29.00;;;1.80;99.90;;;;;;5021052;28;20125;-83
2023/03/02 05:37:19;;;;;;;78.90;30.65;;;1.80;99.90;;;;;;5028977;28;20048;-82
2023/03/02 05:39:45;;;;;;;72.95;28.63;;;1.80;99.90;;;;;;5028421;28;20037;-83
2023/03/02 05:42:10;;;;;;;80.88;30.85;;;1.80;99.90;;;;;;5025722;28;20037;-82
2023/03/02 05:44:36;;;;;;;68.68;28.65;;;1.80;99.90;;;;;;5026994;28;20036;-82
2023/03/02 05:47:02;;;;;;;85.35;30.90;;;1.80;99.90;;;;;;5010759;28;20034;-82
2023/03/02 05:49:27;;;;;;;62.78;29.30;;;1.80;99.90;;;;;;5004020;28;20029;-82
2023/03/02 05:51:53;;;;;;;60.30;27.95;;;1.80;99.90;;;;;;5025758;28;20120;-81
2023/03/02 05:54:19;;;;;;;62.75;28.33;;;1.80;99.90;;;;;;5026503;28;20043;-82
2023/03/02 05:56:44;;;;;;;72.88;29.90;;;1.70;99.90;;;;;;5011661;28;20041;-83
2023/03/02 05:59:10;;;;;;;82.60;31.95;;;1.70;99.90;;;;;;5009005;28;20128;-82
2023/03/02 06:01:35;;;;;;;73.30;31.20;;;1.80;99.90;;;;;;5026721;28;20499;-82
2023/03/02 06:04:01;;;;;;;63.40;29.25;;;1.80;99.90;;;;;;5010658;28;20040;-81
2023/03/02 06:06:27;;;;;;;72.10;29.33;;;1.70;99.90;;;;;;5026882;28;20084;-83
2023/03/02 06:08:53;;;;;;;65.20;30.20;;;1.70;99.90;;;;;;5026734;28;20042;-83
2023/03/02 06:11:18;;;;;;;66.40;29.83;;;1.70;99.90;;;;;;5023987;28;20091;-83
2023/03/02 06:13:44;;;;;;;80.80;31.02;;;1.70;99.90;;;;;;5010361;28;20524;-83
2023/03/02 06:16:10;;;;;;;65.85;30.85;;;1.70;99.90;;;;;;5009875;28;20053;-82
2023/03/02 06:18:36;;;;;;;76.30;31.98;;;1.70;99.90;;;;;;5027212;28;20075;-82
2023/03/02 06:21:02;;;;;;;64.03;28.85;;;1.80;99.90;;;;;;5009947;28;20045;-81
2023/03/02 06:23:28;;;;;;;95.95;32.40;;;1.70;99.90;;;;;;5006168;28;20411;-82
2023/03/02 06:25:53;;;;;;;89.40;30.60;;;1.70;99.90;;;;;;5004774;28;20030;-83
2023/03/02 06:28:20;;;;;;;82.85;32.80;;;1.70;99.90;;;;;;5027258;28;20057;-82
2023/03/02 06:30:48;;;;;;;82.22;31.02;;;1.70;99.90;;;;;;5026601;28;20112;-81
2023/03/02 06:33:16;;;;;;;72.80;30.35;;;1.70;99.90;;;;;;5025233;28;20037;-84
2023/03/02 06:35:42;;;;;;;85.25;29.33;;;1.70;99.90;;;;;;5025001;28;20037;-81
2023/03/02 06:38:08;;;;;;;75.20;30.48;;;1.70;99.90;;;;;;5023942;28;20099;-81
2023/03/02 06:40:34;;;;;;;83.93;28.75;;;1.70;99.90;;;;;;5007659;28;20041;-82
2023/03/02 06:43:00;;;;;;;98.20;31.42;;;1.60;99.90;;;;;;5023884;28;20029;-81
2023/03/02 06:45:27;;;;;;;86.07;29.02;;;1.60;99.90;;;;;;5021902;28;20515;-82
2023/03/02 06:47:54;;;;;;;80.60;28.58;;;1.60;99.90;;;;;;5023041;28;20033;-82
2023/03/02 06:50:20;;;;;;;68.40;26.85;;;1.50;99.90;;;;;;5021709;28;20385;-82
2023/03/02 06:52:46;;;;;;;54.00;25.65;;;1.50;99.90;;;;;;5025673;28;20033;-83
2023/03/02 06:55:11;;;;;;;75.30;28.52;;;1.50;99.90;;;;;;4999962;28;20146;-82
2023/03/02 06:57:38;;;;;;;57.92;26.50;;;1.60;99.90;;;;;;5025138;28;20131;-83
2023/03/02 07:00:15;;;;;;;48.13;24.52;;;1.60;99.90;;;;;;5025643;28;20503;-82
2023/03/02 07:02:42;;;;;;;69.22;26.48;;;1.60;99.90;;;;;;5001560;28;20577;-81
2023/03/02 07:05:08;;;;;;;69.15;27.70;;;1.60;99.90;;;;;;5010093;28;20056;-82
2023/03/02 07:07:34;;;;;;;49.10;24.58;;;1.50;99.90;;;;;;5005968;28;20069;-81
2023/03/02 07:09:59;;;;;;;70.93;28.58;;;1.60;99.90;;;;;;5006623;28;20033;-81
2023/03/02 07:12:25;;;;;;;71.05;27.83;;;1.60;99.90;;;;;;5009999;28;20499;-82
2023/03/02 07:14:50;;;;;;;57.03;26.60;;;1.60;99.90;;;;;;5011209;28;20077;-82
2023/03/02 07:17:16;;;;;;;57.00;25.73;;;1.60;99.90;;;;;;5012390;28;20037;-81
2023/03/02 07:19:42;;;;;;;53.58;26.10;;;1.60;99.90;;;;;;5010097;28;20055;-81
2023/03/02 07:22:07;;;;;;;68.22;25.60;;;1.60;99.90;;;;;;5009317;28;20041;-81
2023/03/02 07:24:33;;;;;;;65.15;27.92;;;1.70;99.90;;;;;;5025567;28;20037;-81
2023/03/02 07:26:59;;;;;;;65.30;26.38;;;1.60;99.90;;;;;;5025720;28;20098;-82
2023/03/02 07:29:24;;;;;;;50.33;23.15;;;1.60;99.90;;;;;;5007706;28;20034;-81
2023/03/02 07:31:55;;;;;;;63.88;24.55;;;1.70;99.90;;;;;;5025682;28;20037;-83
2023/03/02 07:34:22;;;;;;;52.33;24.60;;;1.70;99.90;;;;;;5003049;28;20237;-81
2023/03/02 07:36:48;;;;;;;67.13;25.48;;;1.70;99.90;;;;;;5012325;28;20060;-83
2023/03/02 07:39:13;;;;;;;53.50;25.83;;;1.70;99.90;;;;;;5008901;28;20029;-80
2023/03/02 07:41:39;;;;;;;50.03;24.58;;;1.70;99.90;;;;;;5022791;28;20045;-81
2023/03/02 07:44:04;;;;;;;52.95;25.70;;;1.70;99.90;;;;;;4998918;28;20468;-81
2023/03/02 07:46:30;;;;;;;47.78;24.80;;;1.80;99.90;;;;;;5040067;22;20482;-85
2023/03/02 07:48:57;;;;;;;53.17;25.42;;;1.80;99.90;;;;;;5016227;28;20064;-85
2023/03/02 07:51:23;;;;;;;54.00;24.42;;;1.90;99.90;;;;;;5034980;28;20095;-85
2023/03/02 07:53:49;;;;;;;50.40;24.90;;;1.90;99.90;;;;;;5032337;28;20380;-85
2023/03/02 07:56:15;;;;;;;51.25;25.75;;;1.90;99.90;;;;;;5044284;28;20037;-84
2023/03/02 07:58:40;;;;;;;51.65;24.83;;;2.00;99.90;;;;;;5026237;28;20061;-85
2023/03/02 08:01:06;;;;;;;53.67;26.52;;;2.00;99.90;;;;;;5034117;28;20409;-85
2023/03/02 08:03:32;;;;;;;59.85;27.25;;;2.00;99.90;;;;;;5032509;28;20515;-86
2023/03/02 08:05:57;;;;;;;57.67;27.23;;;2.10;99.90;;;;;;5009161;28;20388;-85
2023/03/02 08:08:23;;;;;;;60.40;27.75;;;2.10;99.90;;;;;;5021091;28;20037;-85
2023/03/02 08:10:48;;;;;;;48.05;25.83;;;2.10;99.90;;;;;;5018168;28;20034;-84
2023/03/02 08:13:14;;;;;;;46.53;25.90;;;2.10;99.90;;;;;;5030517;28;20033;-85
2023/03/02 08:15:40;;;;;;;48.15;25.20;;;2.10;99.90;;;;;;5013442;28;20034;-85
2023/03/02 08:18:05;;;;;;;45.80;24.38;;;2.20;99.90;;;;;;5026784;28;20037;-85
2023/03/02 08:20:31;;;;;;;48.65;24.52;;;2.20;99.90;;;;;;5012829;28;20544;-85
2023/03/02 08:22:56;;;;;;;45.60;23.15;;;2.30;99.90;;;;;;5034683;28;20033;-85
2023/03/02 08:25:22;;;;;;;49.60;24.92;;;2.30;99.90;;;;;;5036562;28;20402;-86
2023/03/02 08:27:47;;;;;;;46.05;24.35;;;2.30;99.90;;;;;;5032156;28;20044;-86
2023/03/02 08:30:14;;;;;;;50.03;25.17;;;2.30;99.90;;;;;;5030231;28;20041;-85
2023/03/02 08:32:39;;;;;;;48.10;24.98;;;2.40;99.90;;;;;;5029960;28;20098;-86
2023/03/02 08:35:05;;;;;;;41.75;22.25;;;2.40;99.90;;;;;;5012537;28;20057;-85
2023/03/02 08:37:32;;;;;;;44.28;24.38;;;2.40;99.90;;;;;;5028030;28;20179;-86
2023/03/02 08:39:58;;;;;;;48.58;24.83;;;2.50;99.90;;;;;;5028236;28;20257;-86
2023/03/02 08:42:23;;;;;;;47.58;24.40;;;2.60;99.90;;;;;;5010580;28;20124;-88
2023/03/02 08:44:49;;;;;;;58.05;25.20;;;2.60;99.90;;;;;;5013099;28;20061;-85
2023/03/02 08:47:14;;;;;;;40.45;23.02;;;2.70;99.90;;;;;;5032561;28;20034;-85
2023/03/02 08:49:40;;;;;;;46.08;23.13;;;2.70;99.90;;;;;;5024737;28;20136;-86
2023/03/02 08:52:05;;;;;;;41.30;22.02;;;2.70;99.90;;;;;;5033449;28;20041;-87
2023/03/02 08:54:33;;;;;;;38.30;22.02;;;2.70;99.90;;;;;;5024502;28;20518;-87
2023/03/02 08:56:59;;;;;;;38.80;22.02;;;2.70;99.90;;;;;;5007550;28;20038;-90
2023/03/02 08:59:25;;;;;;;38.83;20.38;;;2.70;99.90;;;;;;5009594;28;20041;-87
2023/03/02 09:01:51;;;;;;;34.70;21.00;;;2.70;99.90;;;;;;5025990;28;20038;-87
2023/03/02 09:04:17;;;;;;;32.50;18.27;;;2.70;99.90;;;;;;5015833;28;20544;-86
2023/03/02 09:06:44;;;;;;;37.28;20.75;;;2.70;99.90;;;;;;5030281;28;20408;-86
2023/03/02 09:09:12;;;;;;;34.20;20.30;;;2.70;99.90;;;;;;5021650;28;20064;-86
2023/03/02 09:11:38;;;;;;;35.22;19.83;;;2.80;99.90;;;;;;5009811;28;20077;-85
2023/03/02 09:14:04;;;;;;;32.63;18.95;;;2.80;99.90;;;;;;5028173;28;20116;-85
2023/03/02 09:16:30;;;;;;;32.75;20.20;;;2.90;99.90;;;;;;5018024;28;20068;-85
2023/03/02 09:18:56;;;;;;;38.45;21.65;;;2.90;99.90;;;;;;5031356;28;20041;-85
2023/03/02 09:21:22;;;;;;;37.53;21.38;;;2.90;99.90;;;;;;5029446;28;20034;-85
2023/03/02 09:23:47;;;;;;;36.80;21.40;;;2.90;99.90;;;;;;5002360;28;20044;-85
2023/03/02 09:26:13;;;;;;;35.95;21.15;;;3.00;99.90;;;;;;5029063;28;20104;-85
2023/03/02 09:28:38;;;;;;;37.42;20.98;;;3.10;99.90;;;;;;5034220;28;20064;-85
2023/03/02 09:31:06;;;;;;;35.75;21.95;;;3.10;99.90;;;;;;5031007;28;20053;-85
2023/03/02 09:33:32;;;;;;;53.13;22.10;;;3.10;99.90;;;;;;5011165;28;20033;-85
2023/03/02 09:35:57;;;;;;;37.38;21.45;;;3.10;99.90;;;;;;5030568;28;20091;-86
2023/03/02 09:38:23;;;;;;;33.03;20.52;;;3.20;99.90;;;;;;5010705;28;20110;-86
2023/03/02 09:40:52;;;;;;;33.55;20.00;;;3.20;99.90;;;;;;5022496;28;20041;-85
2023/03/02 09:43:31;;;;;;;36.13;20.45;;;3.20;99.90;;;;;;5031820;28;20099;-85
2023/03/02 09:46:29;;;;;;;30.20;19.42;;;3.20;99.90;;;;;;5028945;28;20037;-85
2023/03/02 09:49:19;;;;;;;34.40;19.80;;;3.30;99.90;;;;;;4983086;28;20450;-84
2023/03/02 09:52:20;;;;;;;32.90;19.92;;;3.30;99.90;;;;;;5027986;28;20049;-85
2023/03/02 09:54:46;;;;;;;35.58;20.92;;;3.40;99.90;;;;;;5018787;28;20045;-85
2023/03/02 09:57:32;;;;;;;34.00;20.42;;;3.40;99.90;;;;;;5034257;28;20044;-84
2023/03/02 10:00:29;;;;;;;36.60;21.05;;;3.60;99.90;;;;;;5032685;28;20039;-80
2023/03/02 10:03:08;;;;;;;34.50;20.02;;;3.50;99.90;;;;;;5032612;28;20049;-84
2023/03/02 10:05:39;;;;;;;31.38;20.27;;;3.50;99.90;;;;;;5021247;28;20048;-85
2023/03/02 10:08:10;;;;;;;30.00;18.58;;;3.50;99.90;;;;;;5015798;28;20048;-84
2023/03/02 10:11:07;;;;;;;24.90;16.92;;;3.70;99.90;;;;;;5005547;28;20029;-85
2023/03/02 10:13:42;;;;;;;29.27;17.60;;;3.70;99.90;;;;;;5028987;28;20026;-85
2023/03/02 10:16:45;;;;;;;30.45;18.90;;;3.70;99.90;;;;;;5031706;28;20042;-85
2023/03/02 10:19:15;;;;;;;28.75;18.23;;;3.70;99.90;;;;;;5033817;28;20045;-84
2023/03/02 10:21:56;;;;;;;32.15;19.38;;;3.80;99.90;;;;;;5028738;28;20072;-85
2023/03/02 10:24:28;;;;;;;31.25;19.90;;;4.00;99.90;;;;;;5038386;28;20087;-84
2023/03/02 10:27:09;;;;;;;30.88;20.17;;;4.00;99.90;;;;;;5003324;28;20030;-85
2023/03/02 10:30:02;;;;;;;31.08;19.92;;;4.00;99.90;;;;;;5010861;28;20124;-84
2023/03/02 10:32:49;;;;;;;31.58;20.05;;;4.10;99.90;;;;;;5031455;28;20047;-84
2023/03/02 10:35:21;;;;;;;29.45;18.70;;;4.30;99.90;;;;;;5002678;28;20649;-85
2023/03/02 10:37:56;;;;;;;28.00;19.25;;;4.50;99.90;;;;;;5037557;28;20084;-84
2023/03/02 10:40:48;;;;;;;31.05;19.58;;;4.70;99.90;;;;;;5020153;28;20135;-85
2023/03/02 10:43:43;;;;;;;31.90;20.10;;;4.90;99.90;;;;;;5027996;28;20516;-84
2023/03/02 10:46:10;;;;;;;29.95;19.65;;;4.80;99.90;;;;;;5030991;28;20060;-84
2023/03/02 10:49:21;;;;;;;29.40;20.05;;;4.80;99.90;;;;;;5034380;28;20037;-85
2023/03/02 10:52:02;;;;;;;31.38;20.00;;;4.80;99.90;;;;;;5021728;28;20129;-85
2023/03/02 10:54:31;;;;;;;29.75;19.77;;;4.80;99.90;;;;;;5019480;28;20045;-84
2023/03/02 10:57:01;;;;;;;27.77;18.25;;;4.90;99.90;;;;;;5005541;28;20048;-84
2023/03/02 10:59:44;;;;;;;29.35;19.58;;;5.10;99.90;;;;;;5047630;28;20033;-84
2023/03/02 11:02:23;;;;;;;32.10;21.73;;;5.10;99.90;;;;;;5041336;28;20067;-84
2023/03/02 11:04:57;;;;;;;31.48;21.55;;;5.10;99.90;;;;;;5013603;28;20120;-85
2023/03/02 11:07:26;;;;;;;34.45;20.98;;;5.10;99.90;;;;;;5018655;28;20091;-84
2023/03/02 11:10:16;;;;;;;28.83;19.67;;;5.20;99.90;;;;;;5029444;28;20046;-85
2023/03/02 11:12:46;;;;;;;32.70;20.42;;;5.30;99.90;;;;;;5038134;28;20037;-84
2023/03/02 11:15:25;;;;;;;34.80;22.42;;;5.40;99.90;;;;;;5016604;28;20032;-85
2023/03/02 11:18:00;;;;;;;31.05;20.00;;;5.40;99.90;;;;;;5011091;28;20091;-85
2023/03/02 11:20:32;;;;;;;31.48;19.75;;;5.40;99.90;;;;;;5012384;28;20057;-85
2023/03/02 11:23:14;;;;;;;32.20;21.10;;;5.40;99.90;;;;;;5011913;28;20037;-85
2023/03/02 11:25:55;;;;;;;31.00;20.77;;;5.50;99.90;;;;;;5021695;28;20511;-84
2023/03/02 11:29:01;;;;;;;33.38;21.08;;;5.70;99.90;;;;;;5033487;28;20044;-84
2023/03/02 11:31:52;;;;;;;31.92;21.00;;;5.70;99.90;;;;;;5017842;28;20049;-84
2023/03/02 11:34:20;;;;;;;30.42;21.13;;;5.70;99.90;;;;;;5030256;28;20059;-85
2023/03/02 11:37:04;;;;;;;32.33;20.50;;;5.70;99.90;;;;;;5028478;28;20038;-85
2023/03/02 11:39:48;;;;;;;31.77;21.48;;;5.70;99.90;;;;;;5011082;28;20496;-85
2023/03/02 11:42:30;;;;;;;32.40;20.83;;;5.60;99.90;;;;;;5017084;28;20129;-84
2023/03/02 11:44:59;;;;;;;31.73;21.13;;;5.60;99.90;;;;;;5023525;28;20033;-84
2023/03/02 11:47:25;;;;;;;30.92;20.40;;;5.60;99.90;;;;;;5021880;28;20636;-85
2023/03/02 11:49:57;;;;;;;27.27;18.50;;;5.80;99.90;;;;;;5001844;28;20491;-85
2023/03/02 11:52:29;;;;;;;32.80;21.25;;;5.90;99.90;;;;;;5013804;28;20073;-85
2023/03/02 11:55:19;;;;;;;30.75;19.70;;;5.90;99.90;;;;;;5012955;28;20033;-85
2023/03/02 11:57:49;;;;;;;30.90;19.50;;;5.90;99.90;;;;;;5003540;28;20041;-85
2023/03/02 12:00:35;;;;;;;30.48;20.27;;;5.90;99.90;;;;;;5025767;28;20033;-85
2023/03/02 12:03:17;;;;;;;32.67;20.73;;;5.90;99.90;;;;;;5027679;28;20037;-84
2023/03/02 12:05:45;;;;;;;34.13;21.33;;;6.00;99.90;;;;;;5027457;28;20448;-85
2023/03/02 12:08:17;;;;;;;29.58;19.45;;;6.20;99.90;;;;;;5028747;28;20037;-84
2023/03/02 12:11:20;;;;;;;32.80;20.65;;;6.20;99.90;;;;;;5019801;28;20103;-84
2023/03/02 12:13:59;;;;;;;28.27;18.90;;;6.50;99.90;;;;;;5018550;28;20052;-85
2023/03/02 12:16:34;;;;;;;30.27;19.63;;;6.90;99.90;;;;;;5025440;28;20072;-85
2023/03/02 12:19:16;;;;;;;30.30;19.50;;;7.00;99.90;;;;;;5020594;28;20049;-85
2023/03/02 12:21:54;;;;;;;27.58;18.35;;;7.00;99.90;;;;;;5021479;28;20083;-85
2023/03/02 12:24:26;;;;;;;28.25;18.17;;;7.00;99.90;;;;;;5029802;28;20073;-84
2023/03/02 12:27:12;;;;;;;27.00;17.67;;;6.90;99.90;;;;;;5020238;28;20045;-85
2023/03/02 12:29:45;;;;;;;28.73;18.65;;;6.90;99.90;;;;;;5020619;28;20507;-85
2023/03/02 12:32:31;;;;;;;28.95;18.70;;;6.80;99.90;;;;;;5010713;28;20072;-85
2023/03/02 12:35:24;;;;;;;27.95;18.60;;;6.70;99.90;;;;;;5024079;28;20121;-85
2023/03/02 12:37:52;;;;;;;30.10;19.42;;;6.80;99.90;;;;;;5005869;28;20056;-85
2023/03/02 12:40:36;;;;;;;28.77;19.25;;;7.00;99.90;;;;;;5033732;28;20033;-85
2023/03/02 12:43:32;;;;;;;30.23;19.85;;;7.30;99.90;;;;;;5028284;28;20051;-85
2023/03/02 12:46:27;;;;;;;31.15;20.05;;;7.40;99.90;;;;;;5013191;28;20033;-84
2023/03/02 12:49:11;;;;;;;32.25;20.38;;;7.30;99.90;;;;;;5002103;28;20061;-85
2023/03/02 12:51:56;;;;;;;31.35;20.25;;;7.20;99.90;;;;;;5022711;28;20132;-85